KCVG Airport Diagram

We have created a template for each of the higher traffic airports in the vZID airspace. They include KCMH, KCRW, KCVG, KDAY, KIND, KLEX and KSDF. You wil find usefull information including the airport diagram, weather, and specific airport procedures.

KCVG Weather

[Source: ADDS]
METAR
KCVG 190752Z 19003KT 9SM OVC008 04/03 A3012 RMK AO2 SLP201 T00390028 =
TAF
KCVG 190538Z 1906/2012 23004KT P6SM OVC007 TEMPO 1906/1908 BKN018 FM190800 16004KT P6SM OVC250 FM191600 12007KT P6SM OVC120 FM192300 12009KT P6SM VCSH OVC040 FM200100 11010KT 5SM -RA BR OVC020 FM200600 15006KT 3SM -RA BR OVC008 =

KCVG Operations

Calm Wind Configuration is Landing runways 36C and 36R, departing runway 27.

You can expect  this configuration up to and including a 10 knot tailwind.

The Center runway is the old 18R/36L in the default scenery. Additionally, runway 9/27 was lengthened to 12,000 feet when the west runway (18R/36L) was added.

New Scenery is available at FlightSim.com.

On initial contact, arriving aircraft should notify the the controller which scenery they have.

 

JSN Epic template designed by JoomlaShine.com